createdAt,value
2023-11-10T00:00:42.490Z,504
2023-11-10T00:01:44.303Z,504.3
2023-11-10T00:02:46.959Z,504.3
2023-11-10T00:03:50.278Z,504.3
2023-11-10T00:04:53.162Z,504.3
2023-11-10T00:05:55.819Z,504.3
2023-11-10T00:06:57.782Z,504.4
2023-11-10T00:07:59.565Z,504.3
2023-11-10T00:09:01.416Z,504.4
2023-11-10T00:10:03.249Z,504.7
2023-11-10T00:11:05.039Z,504.8
2023-11-10T00:12:07.096Z,504.7
2023-11-10T00:13:08.920Z,504.8
2023-11-10T00:14:30.810Z,504.3
2023-11-10T00:15:37.006Z,504.1
2023-11-10T00:16:38.818Z,504.4
2023-11-10T00:17:40.733Z,504
2023-11-10T00:18:42.760Z,503.8
2023-11-10T00:19:44.629Z,504.1
2023-11-10T00:20:46.518Z,504.1
2023-11-10T00:21:48.340Z,504.3
2023-11-10T00:22:50.108Z,504.7
2023-11-10T00:23:51.885Z,504.9
2023-11-10T00:24:53.712Z,504.8
2023-11-10T00:25:55.557Z,504.8
2023-11-10T00:26:57.342Z,504.6
2023-11-10T00:27:59.098Z,505
2023-11-10T00:29:00.903Z,504.5
2023-11-10T00:30:02.714Z,505.1
2023-11-10T00:31:04.526Z,505
2023-11-10T00:32:06.339Z,504.3
2023-11-10T00:33:08.984Z,504.5
2023-11-10T00:34:11.605Z,504.2
2023-11-10T00:35:13.472Z,504.3
2023-11-10T00:36:15.460Z,503.8
2023-11-10T00:37:20.111Z,504.3
2023-11-10T00:38:21.884Z,504.5
2023-11-10T00:39:26.040Z,504.9
2023-11-10T00:40:27.955Z,504.7
2023-11-10T00:41:29.789Z,505.2
2023-11-10T00:42:31.817Z,505.1
2023-11-10T00:43:33.603Z,505
2023-11-10T00:44:35.411Z,505.1
2023-11-10T00:45:37.475Z,505.3
2023-11-10T00:46:39.692Z,505.5
2023-11-10T00:47:41.595Z,505.4
2023-11-10T00:48:43.648Z,505.2
2023-11-10T00:49:45.553Z,504.8
2023-11-10T00:50:47.312Z,505.2
2023-11-10T00:51:49.129Z,504.9
2023-11-10T00:52:50.909Z,505.3
2023-11-10T00:53:52.887Z,505.3
2023-11-10T00:54:54.702Z,505.5
2023-11-10T00:55:56.654Z,505.4
2023-11-10T00:56:58.438Z,505.2
2023-11-10T00:58:00.246Z,505.2
2023-11-10T00:59:02.115Z,505.3
2023-11-10T01:00:03.940Z,505.4
2023-11-10T01:01:05.808Z,505.2
2023-11-10T01:02:07.951Z,505.4
2023-11-10T01:03:10.694Z,505.1
2023-11-10T01:04:13.317Z,505.2
2023-11-10T01:05:15.282Z,505.5
2023-11-10T01:06:17.785Z,505.6
2023-11-10T01:07:19.895Z,505.5
2023-11-10T01:08:21.674Z,505.8
2023-11-10T01:09:23.648Z,505.9
2023-11-10T01:10:25.457Z,506
2023-11-10T01:11:27.639Z,506
2023-11-10T01:12:29.575Z,505.9
2023-11-10T01:13:31.374Z,505.8
2023-11-10T01:14:33.163Z,506.1
2023-11-10T01:15:35.149Z,506.2
2023-11-10T01:16:37.239Z,506.2
2023-11-10T01:17:39.309Z,506.2
2023-11-10T01:18:41.414Z,506.4
2023-11-10T01:19:43.172Z,506.6
2023-11-10T01:20:45.043Z,506.6
2023-11-10T01:21:47.380Z,506.6
2023-11-10T01:22:49.264Z,506.5
2023-11-10T01:23:51.041Z,506.3
2023-11-10T01:24:52.832Z,506.3
2023-11-10T01:25:54.664Z,506.1
2023-11-10T01:26:56.490Z,506.4
2023-11-10T01:27:58.347Z,506.3
2023-11-10T01:29:00.132Z,506.3
2023-11-10T01:30:01.960Z,506.6
2023-11-10T01:31:03.906Z,506.4
2023-11-10T01:32:05.779Z,506.1
2023-11-10T01:33:08.318Z,506.2
2023-11-10T01:34:10.622Z,506.6
2023-11-10T01:35:12.517Z,506.7
2023-11-10T01:36:14.645Z,506.5
2023-11-10T01:37:16.536Z,506.5
2023-11-10T01:38:18.331Z,506.6
2023-11-10T01:39:20.269Z,506.7
2023-11-10T01:40:22.033Z,506.8
2023-11-10T01:41:26.531Z,506.7
2023-11-10T01:42:28.493Z,506.9
2023-11-10T01:43:30.285Z,506.9
2023-11-10T01:44:32.045Z,506.8
2023-11-10T01:45:34.064Z,507
2023-11-10T01:46:36.307Z,507.1
2023-11-10T01:47:38.376Z,507.1
2023-11-10T01:48:40.649Z,507.2
2023-11-10T01:49:42.735Z,507.5
2023-11-10T01:50:44.594Z,507.8
2023-11-10T01:51:47.445Z,507.6
2023-11-10T01:52:49.354Z,507.8
2023-11-10T01:53:51.118Z,507.8
2023-11-10T01:54:52.890Z,508
2023-11-10T01:55:54.656Z,508.4
2023-11-10T01:56:56.533Z,508.2
2023-11-10T01:57:58.293Z,508.3
2023-11-10T01:59:00.037Z,508.6
2023-11-10T02:00:01.792Z,509
2023-11-10T02:01:03.549Z,508.7
2023-11-10T02:02:06.090Z,509
2023-11-10T02:03:09.365Z,508.7
2023-11-10T02:04:11.972Z,509.2
2023-11-10T02:05:13.879Z,508.9
2023-11-10T02:06:15.901Z,509
2023-11-10T02:07:17.762Z,509.3
2023-11-10T02:08:19.630Z,509.4
2023-11-10T02:09:21.661Z,509.4
2023-11-10T02:10:23.436Z,509.4
2023-11-10T02:11:25.240Z,509.8
2023-11-10T02:12:27.355Z,509.4
2023-11-10T02:13:29.186Z,509.5
2023-11-10T02:14:31.170Z,509.5
2023-11-10T02:15:33.102Z,509.7
2023-11-10T02:16:35.262Z,509.7
2023-11-10T02:17:37.089Z,510.1
2023-11-10T02:18:39.191Z,509.7
2023-11-10T02:19:40.995Z,510
2023-11-10T02:20:42.750Z,509.7
2023-11-10T02:21:44.819Z,509.7
2023-11-10T02:22:46.808Z,509.9
2023-11-10T02:23:48.562Z,509.7
2023-11-10T02:24:50.447Z,510.3
2023-11-10T02:25:52.287Z,510.3
2023-11-10T02:26:54.033Z,510.6
2023-11-10T02:27:55.810Z,510.6
2023-11-10T02:28:57.662Z,510.7
2023-11-10T02:29:59.408Z,510.6
2023-11-10T02:31:01.472Z,510.8
2023-11-10T02:32:03.188Z,510.7
2023-11-10T02:33:05.289Z,510.9
2023-11-10T02:34:07.178Z,510.7
2023-11-10T02:35:08.976Z,510.8
2023-11-10T02:36:10.889Z,510.9
2023-11-10T02:37:12.798Z,510.8
2023-11-10T02:38:14.660Z,510.8
2023-11-10T02:39:16.693Z,511
2023-11-10T02:40:18.453Z,511.1
2023-11-10T02:41:20.163Z,510.8
2023-11-10T02:42:22.012Z,510.8
2023-11-10T02:43:23.904Z,510.9
2023-11-10T02:44:25.699Z,511.1
2023-11-10T02:45:30.560Z,511.5
2023-11-10T02:46:32.598Z,511.7
2023-11-10T02:47:34.759Z,511.8
2023-11-10T02:48:37.116Z,512.6
2023-11-10T02:49:38.981Z,512.4
2023-11-10T02:50:40.869Z,512.7
2023-11-10T02:51:43.049Z,512.8
2023-11-10T02:52:45.085Z,512.8
2023-11-10T02:53:46.904Z,512.7
2023-11-10T02:54:48.866Z,513
2023-11-10T02:55:50.664Z,513.4
2023-11-10T02:56:52.482Z,513.1
2023-11-10T02:57:54.260Z,512.9
2023-11-10T02:58:56.064Z,512.7
2023-11-10T02:59:57.825Z,512.6
2023-11-10T03:00:59.650Z,512.2
2023-11-10T03:02:01.423Z,511.9
2023-11-10T03:03:06.838Z,511.6
2023-11-10T03:04:09.377Z,511.7
2023-11-10T03:05:11.252Z,511.4
2023-11-10T03:06:13.266Z,510.8
2023-11-10T03:07:15.007Z,511.3
2023-11-10T03:08:16.828Z,511.7
2023-11-10T03:09:18.927Z,512.1
2023-11-10T03:10:20.854Z,512.2
2023-11-10T03:11:22.642Z,512.4
2023-11-10T03:12:24.564Z,512.7
2023-11-10T03:13:26.357Z,512.6
2023-11-10T03:14:28.099Z,512.6
2023-11-10T03:15:30.392Z,512.8
2023-11-10T03:16:32.220Z,512.7
2023-11-10T03:17:34.268Z,512.6
2023-11-10T03:18:36.898Z,512.5
2023-11-10T03:19:39.048Z,512.1
2023-11-10T03:20:40.901Z,512.2
2023-11-10T03:21:43.183Z,512.4
2023-11-10T03:22:45.452Z,512.2
2023-11-10T03:23:47.304Z,512.5
2023-11-10T03:24:49.257Z,512.6
2023-11-10T03:25:51.111Z,513.1
2023-11-10T03:26:52.931Z,513.6
2023-11-10T03:27:54.683Z,513.5
2023-11-10T03:28:56.423Z,514
2023-11-10T03:29:58.167Z,514
2023-11-10T03:30:59.948Z,514.1
2023-11-10T03:32:01.903Z,513.4
2023-11-10T03:33:04.024Z,513.7
2023-11-10T03:34:05.862Z,513.5
2023-11-10T03:35:07.729Z,513.7
2023-11-10T03:36:09.517Z,514
2023-11-10T03:37:11.424Z,514.3
2023-11-10T03:38:13.214Z,514.2
2023-11-10T03:39:15.171Z,514.2
2023-11-10T03:40:17.067Z,513.9
2023-11-10T03:41:18.783Z,513.8
2023-11-10T03:42:20.667Z,513.9
2023-11-10T03:43:22.453Z,513.4
2023-11-10T03:44:24.224Z,513.8
2023-11-10T03:45:26.101Z,514.5
2023-11-10T03:46:28.196Z,514.3
2023-11-10T03:47:30.251Z,514.6
2023-11-10T03:48:32.438Z,515.1
2023-11-10T03:49:34.177Z,515
2023-11-10T03:50:35.916Z,515.3
2023-11-10T03:51:38.202Z,515.4
2023-11-10T03:52:39.966Z,515.3
2023-11-10T03:53:41.741Z,515.9
2023-11-10T03:54:43.814Z,515.9
2023-11-10T03:55:45.646Z,515.6
2023-11-10T03:56:47.439Z,515.9
2023-11-10T03:57:49.469Z,515.6
2023-11-10T03:58:51.232Z,516.1
2023-11-10T03:59:53.180Z,515.9
2023-11-10T04:00:57.783Z,516.1
2023-11-10T04:01:59.796Z,516.1
2023-11-10T04:03:01.925Z,516
2023-11-10T04:04:04.397Z,516.4
2023-11-10T04:05:06.257Z,516.2
2023-11-10T04:06:08.153Z,516.3
2023-11-10T04:07:10.736Z,516.4
2023-11-10T04:08:12.602Z,516.7
2023-11-10T04:09:14.485Z,516.7
2023-11-10T04:10:16.329Z,516.3
2023-11-10T04:11:18.433Z,516.3
2023-11-10T04:12:20.337Z,516.5
2023-11-10T04:13:22.132Z,516.6
2023-11-10T04:14:23.892Z,516.9
2023-11-10T04:15:25.946Z,517.3
2023-11-10T04:16:27.990Z,517.7
2023-11-10T04:17:30.660Z,517.7
2023-11-10T04:18:32.734Z,517.6
2023-11-10T04:19:34.588Z,517.6
2023-11-10T04:20:36.811Z,517.4
2023-11-10T04:21:38.833Z,517.7
2023-11-10T04:22:40.709Z,517.7
2023-11-10T04:23:42.512Z,518.2
2023-11-10T04:24:44.627Z,517.7
2023-11-10T04:25:46.676Z,517.8
2023-11-10T04:26:48.508Z,517.6
2023-11-10T04:27:50.504Z,517.7
2023-11-10T04:28:52.844Z,517.7
2023-11-10T04:29:54.753Z,517.8
2023-11-10T04:30:57.241Z,517.9
2023-11-10T04:31:59.346Z,517.8
2023-11-10T04:33:01.556Z,517.8
2023-11-10T04:34:03.648Z,517.8
2023-11-10T04:35:05.446Z,517.6
2023-11-10T04:36:07.269Z,517.5
2023-11-10T04:37:09.066Z,517.6
2023-11-10T04:38:11.177Z,517.4
2023-11-10T04:39:13.141Z,517
2023-11-10T04:40:15.008Z,517.5
2023-11-10T04:41:16.995Z,517.1
2023-11-10T04:42:19.173Z,517.2
2023-11-10T04:43:20.999Z,517.3
2023-11-10T04:44:22.836Z,517.8
2023-11-10T04:45:24.814Z,518.1
2023-11-10T04:46:26.930Z,518.6
2023-11-10T04:47:28.777Z,519
2023-11-10T04:48:30.871Z,518.9
2023-11-10T04:49:32.685Z,518.6
2023-11-10T04:50:35.171Z,518.5
2023-11-10T04:51:37.954Z,518.7
2023-11-10T04:52:39.859Z,518.4
2023-11-10T04:53:41.685Z,518.2
2023-11-10T04:54:43.859Z,518.1
2023-11-10T04:55:45.770Z,518.1
2023-11-10T04:56:47.566Z,518.1
2023-11-10T04:57:49.882Z,518.2
2023-11-10T04:58:51.845Z,518.3
2023-11-10T04:59:53.631Z,518.6
2023-11-10T05:00:55.590Z,518.6
2023-11-10T05:01:57.522Z,518.9
2023-11-10T05:02:59.548Z,519.1
2023-11-10T05:04:02.027Z,519.1
2023-11-10T05:05:04.049Z,518.8
2023-11-10T05:06:05.856Z,518.3
2023-11-10T05:07:07.640Z,518.4
2023-11-10T05:08:09.473Z,518.7
2023-11-10T05:09:11.287Z,519.2
2023-11-10T05:10:13.109Z,519
2023-11-10T05:11:14.922Z,519.2
2023-11-10T05:12:17.203Z,519.5
2023-11-10T05:13:19.132Z,519.6
2023-11-10T05:14:20.964Z,519.6
2023-11-10T05:15:22.866Z,519.5
2023-11-10T05:16:24.719Z,520.1
2023-11-10T05:17:26.651Z,519.6
2023-11-10T05:19:42.355Z,519.4
2023-11-10T05:20:44.205Z,519.2
2023-11-10T05:21:46.501Z,519.2
2023-11-10T05:22:48.338Z,519.1
2023-11-10T05:23:50.247Z,519.1
2023-11-10T05:24:52.305Z,519.1
2023-11-10T05:25:54.114Z,519
2023-11-10T05:26:55.842Z,518.7
2023-11-10T05:28:02.610Z,518.8
2023-11-10T05:29:04.546Z,518.1
2023-11-10T05:30:06.333Z,518.2
2023-11-10T05:31:08.083Z,518.4
2023-11-10T05:32:09.815Z,518.9
2023-11-10T05:33:11.871Z,518.7
2023-11-10T05:34:13.665Z,518.2
2023-11-10T05:35:15.412Z,518.4
2023-11-10T05:36:17.578Z,518.4
2023-11-10T05:37:19.311Z,518.3
2023-11-10T05:38:21.246Z,518.2
2023-11-10T05:39:23.158Z,517.8
2023-11-10T05:40:24.966Z,517.6
2023-11-10T05:41:26.812Z,517.9
2023-11-10T05:42:28.729Z,517.7
2023-11-10T05:43:30.530Z,517.7
2023-11-10T05:44:32.386Z,517.5
2023-11-10T05:45:34.310Z,517.8
2023-11-10T05:46:36.313Z,517.8
2023-11-10T05:47:38.297Z,517.8
2023-11-10T05:48:40.244Z,517.9
2023-11-10T05:49:42.128Z,517.9
2023-11-10T05:50:44.178Z,517.9
2023-11-10T05:51:46.220Z,517.6
2023-11-10T05:52:48.038Z,517.9
2023-11-10T05:53:49.757Z,518.2
2023-11-10T05:54:51.686Z,518.3
2023-11-10T05:55:53.452Z,518.4
2023-11-10T05:56:55.280Z,518.1
2023-11-10T05:57:57.243Z,518.4
2023-11-10T05:58:58.967Z,518.4
2023-11-10T06:00:01.073Z,518.6
2023-11-10T06:01:02.939Z,518.6
2023-11-10T06:02:05.365Z,518.3
2023-11-10T06:03:07.303Z,518.5
2023-11-10T06:04:36.436Z,518.7
2023-11-10T06:05:38.460Z,518.8
2023-11-10T06:06:40.395Z,518.5
2023-11-10T06:07:42.191Z,518.6
2023-11-10T06:08:43.943Z,518.4
2023-11-10T06:09:46.005Z,518.4
2023-11-10T06:10:47.865Z,518.8
2023-11-10T06:11:57.163Z,518.9
2023-11-10T06:12:59.159Z,519
2023-11-10T06:14:00.998Z,519.2
2023-11-10T06:15:02.874Z,519.3
2023-11-10T06:16:05.101Z,519.5
2023-11-10T06:17:07.043Z,518.9
2023-11-10T06:18:09.284Z,519.2
2023-11-10T06:19:11.151Z,519.3
2023-11-10T06:20:12.955Z,518.8
2023-11-10T06:21:14.733Z,519
2023-11-10T06:22:16.494Z,519.2
2023-11-10T06:23:18.324Z,519.3
2023-11-10T06:24:20.146Z,519.3
2023-11-10T06:25:21.986Z,519.4
2023-11-10T06:26:23.781Z,519.4
2023-11-10T06:27:26.050Z,519.2
2023-11-10T06:28:27.905Z,519.4
2023-11-10T06:29:29.695Z,519.1
2023-11-10T06:30:31.666Z,518.7
2023-11-10T06:31:33.524Z,518.7
2023-11-10T06:32:35.812Z,518.8
2023-11-10T06:33:37.838Z,518.8
2023-11-10T06:34:39.772Z,518.9
2023-11-10T06:35:41.614Z,518.7
2023-11-10T06:36:43.823Z,518.3
2023-11-10T06:37:45.894Z,518.5
2023-11-10T06:38:47.661Z,518.6
2023-11-10T06:39:49.808Z,519
2023-11-10T06:40:51.693Z,519.3
2023-11-10T06:41:53.548Z,519.1
2023-11-10T06:42:55.708Z,519.2
2023-11-10T06:43:57.582Z,519.1
2023-11-10T06:45:02.113Z,519.5
2023-11-10T06:46:03.984Z,519.8
2023-11-10T06:47:06.259Z,520.2
2023-11-10T06:48:08.132Z,520.1
2023-11-10T06:49:10.003Z,520.3
2023-11-10T06:50:11.753Z,520.7
2023-11-10T06:51:13.510Z,521.1
2023-11-10T06:52:15.317Z,521.1
2023-11-10T06:53:17.217Z,521.1
2023-11-10T06:54:19.210Z,521.2
2023-11-10T06:55:21.110Z,521.1
2023-11-10T06:56:22.864Z,520.5
2023-11-10T06:57:24.854Z,520.6
2023-11-10T06:58:26.626Z,521
2023-11-10T06:59:28.478Z,521.4
2023-11-10T07:00:30.678Z,521.3
2023-11-10T07:01:32.884Z,521.4
2023-11-10T07:02:35.086Z,521.3
2023-11-10T07:03:38.031Z,521.1
2023-11-10T07:04:40.552Z,521.1
2023-11-10T07:05:42.596Z,521.3
2023-11-10T07:06:44.563Z,521.3
2023-11-10T07:07:46.605Z,521.3
2023-11-10T07:08:48.430Z,521.2
2023-11-10T07:09:50.465Z,521.4
2023-11-10T07:10:52.400Z,521.8
2023-11-10T07:11:54.158Z,521.9
2023-11-10T07:12:56.233Z,522.3
2023-11-10T07:13:58.126Z,522.6
2023-11-10T07:14:59.858Z,522.7
2023-11-10T07:16:02.208Z,522.9
2023-11-10T07:17:04.074Z,522.3
2023-11-10T07:18:06.239Z,522.6
2023-11-10T07:19:08.219Z,522.5
2023-11-10T07:20:10.085Z,523
2023-11-10T07:21:11.947Z,523
2023-11-10T07:22:13.765Z,522.9
2023-11-10T07:23:15.572Z,523
2023-11-10T07:24:17.319Z,523
2023-11-10T07:25:19.063Z,523.3
2023-11-10T07:26:20.827Z,523.3
2023-11-10T07:27:22.708Z,524.1
2023-11-10T07:28:24.515Z,524.2
2023-11-10T07:29:26.364Z,524.2
2023-11-10T07:30:28.269Z,524.5
2023-11-10T07:31:30.446Z,524.3
2023-11-10T07:32:32.829Z,524.5
2023-11-10T07:33:35.029Z,524
2023-11-10T07:34:37.000Z,524.2
2023-11-10T07:35:38.932Z,524.3
2023-11-10T07:36:41.018Z,524.5
2023-11-10T07:37:42.736Z,524.9
2023-11-10T07:38:44.612Z,525.1
2023-11-10T07:39:46.735Z,525.5
2023-11-10T07:40:48.589Z,525.3
2023-11-10T07:41:50.327Z,525.2
2023-11-10T07:42:52.520Z,524.9
2023-11-10T07:43:54.350Z,524.8
2023-11-10T07:44:56.149Z,524.7
2023-11-10T07:45:58.244Z,524.4
2023-11-10T07:47:00.339Z,524.4
2023-11-10T07:48:02.613Z,524.8
2023-11-10T07:49:04.746Z,524.7
2023-11-10T07:50:06.609Z,524.8
2023-11-10T07:51:08.362Z,525.2
2023-11-10T07:52:10.208Z,525
2023-11-10T07:53:12.045Z,525
2023-11-10T07:54:13.858Z,525.3
2023-11-10T07:55:15.940Z,525.1
2023-11-10T07:56:17.713Z,524.8
2023-11-10T07:57:19.889Z,525.2
2023-11-10T07:58:21.699Z,525.4
2023-11-10T07:59:23.484Z,525.5
2023-11-10T08:00:25.319Z,525.5
2023-11-10T08:01:27.093Z,525.8
2023-11-10T08:02:29.042Z,525.3
2023-11-10T08:03:31.287Z,525.4
2023-11-10T08:04:33.834Z,525
2023-11-10T08:05:35.810Z,524.7
2023-11-10T08:06:37.943Z,524.7
2023-11-10T08:07:39.783Z,524.7
2023-11-10T08:08:41.532Z,525.2
2023-11-10T08:09:43.628Z,526
2023-11-10T08:10:45.447Z,525.7
2023-11-10T08:11:55.964Z,526
2023-11-10T08:12:58.098Z,526.1
2023-11-10T08:13:59.878Z,526
2023-11-10T08:15:02.740Z,525.9
2023-11-10T08:16:05.174Z,525.8
2023-11-10T08:17:07.001Z,525.9
2023-11-10T08:18:08.873Z,525.7
2023-11-10T08:19:10.877Z,525.7
2023-11-10T08:20:12.677Z,525.2
2023-11-10T08:21:14.429Z,525.2
2023-11-10T08:22:16.333Z,525.2
2023-11-10T08:23:18.076Z,524.9
2023-11-10T08:24:19.923Z,525.1
2023-11-10T08:25:21.698Z,525.2
2023-11-10T08:26:23.506Z,525.8
2023-11-10T08:27:25.496Z,526.5
2023-11-10T08:28:27.286Z,526.2
2023-11-10T08:29:29.039Z,526.5
2023-11-10T08:30:31.013Z,527
2023-11-10T08:31:33.002Z,527.1
2023-11-10T08:32:34.885Z,527.1
2023-11-10T08:33:36.900Z,526.9
2023-11-10T08:34:38.831Z,527.1
2023-11-10T08:35:40.782Z,527.3
2023-11-10T08:36:42.645Z,527.2
2023-11-10T08:37:44.495Z,527.7
2023-11-10T08:38:46.264Z,527.8
2023-11-10T08:39:48.315Z,528
2023-11-10T08:40:50.053Z,527.9
2023-11-10T08:41:51.843Z,528.3
2023-11-10T08:42:53.853Z,528.3
2023-11-10T08:43:55.666Z,528.5
2023-11-10T08:44:57.519Z,527.9
2023-11-10T08:45:59.588Z,527.7
2023-11-10T08:47:01.505Z,527.9
2023-11-10T08:48:03.429Z,527.8
2023-11-10T08:49:05.758Z,527.6
2023-11-10T08:50:07.785Z,527.1
2023-11-10T08:51:09.577Z,527.2
2023-11-10T08:52:11.390Z,526.7
2023-11-10T08:53:13.180Z,527
2023-11-10T08:54:14.931Z,527.1
2023-11-10T08:55:16.659Z,527.2
2023-11-10T08:56:18.625Z,527.4
2023-11-10T08:57:20.457Z,527.5
2023-11-10T08:58:22.246Z,527.8
2023-11-10T08:59:23.978Z,527.9
2023-11-10T09:00:26.012Z,528.1
2023-11-10T09:01:28.012Z,528.3
2023-11-10T09:02:29.967Z,528.6
2023-11-10T09:03:32.299Z,529.1
2023-11-10T09:04:34.685Z,529.4
2023-11-10T09:05:36.710Z,529.2
2023-11-10T09:06:38.908Z,528.8
2023-11-10T09:07:40.766Z,529.3
2023-11-10T09:08:42.599Z,529.3
2023-11-10T09:09:44.640Z,528.6
2023-11-10T09:10:46.557Z,528.3
2023-11-10T09:11:48.331Z,528.9
2023-11-10T09:12:50.663Z,529.5
2023-11-10T09:13:53.476Z,529.4
2023-11-10T09:14:55.236Z,529.9
2023-11-10T09:16:03.775Z,530.3
2023-11-10T09:17:06.017Z,530.7
2023-11-10T09:18:08.135Z,531.7
2023-11-10T09:19:10.047Z,532.3
2023-11-10T09:20:12.186Z,531.8
2023-11-10T09:21:14.085Z,531.2
2023-11-10T09:22:15.901Z,531.6
2023-11-10T09:23:17.993Z,532.1
2023-11-10T09:24:19.904Z,531.6
2023-11-10T09:25:22.362Z,531.7
2023-11-10T09:26:24.321Z,531.7
2023-11-10T09:27:26.251Z,532.1
2023-11-10T09:28:28.130Z,531.9
2023-11-10T09:29:29.878Z,532
2023-11-10T09:30:31.819Z,532.3
2023-11-10T09:31:33.682Z,533.6
2023-11-10T09:33:42.725Z,533.8
2023-11-10T09:34:44.785Z,533.6
2023-11-10T09:35:46.692Z,534
2023-11-10T09:36:48.586Z,534.8
2023-11-10T09:37:50.424Z,534.8
2023-11-10T09:38:52.229Z,534.6
2023-11-10T09:39:59.297Z,533.9
2023-11-10T09:41:01.067Z,534.1
2023-11-10T09:42:02.867Z,534.9
2023-11-10T09:43:05.114Z,535
2023-11-10T09:44:06.901Z,534.9
2023-11-10T09:45:08.603Z,534.7
2023-11-10T09:46:10.979Z,534.2
2023-11-10T09:47:12.855Z,534.6
2023-11-10T09:48:14.636Z,534.5
2023-11-10T09:49:16.353Z,534.9
2023-11-10T09:50:18.137Z,534.8
2023-11-10T09:51:19.995Z,534.9
2023-11-10T09:52:21.849Z,535
2023-11-10T09:53:23.787Z,535.3
2023-11-10T09:54:25.882Z,535.4
2023-11-10T09:55:27.834Z,535.7
2023-11-10T09:56:29.585Z,536.4
2023-11-10T09:57:33.113Z,536.8
2023-11-10T09:58:34.933Z,536.7
2023-11-10T09:59:36.769Z,536.5
2023-11-10T10:00:38.995Z,536.4
2023-11-10T10:01:40.950Z,536.4
2023-11-10T10:02:43.598Z,536.5
2023-11-10T10:03:46.604Z,537.3
2023-11-10T10:04:48.735Z,537.8
2023-11-10T10:05:50.503Z,537.8
2023-11-10T10:06:52.341Z,538
2023-11-10T10:07:54.279Z,538.4
2023-11-10T10:08:56.081Z,538.4
2023-11-10T10:09:58.182Z,537.9
2023-11-10T10:10:59.999Z,538.5
2023-11-10T10:12:01.763Z,538.9
2023-11-10T10:13:04.009Z,539.4
2023-11-10T10:14:06.002Z,539.7
2023-11-10T10:15:07.924Z,539.9
2023-11-10T10:16:10.256Z,540.3
2023-11-10T10:17:12.239Z,540.6
2023-11-10T10:18:14.112Z,540.6
2023-11-10T10:19:15.953Z,540.8
2023-11-10T10:20:17.846Z,540.7
2023-11-10T10:21:19.662Z,541
2023-11-10T10:22:21.432Z,541.6
2023-11-10T10:23:23.248Z,542.1
2023-11-10T10:24:25.287Z,542.3
2023-11-10T10:25:27.155Z,542.6
2023-11-10T10:26:28.952Z,542.9
2023-11-10T10:27:31.023Z,543
2023-11-10T10:28:32.828Z,543.1
2023-11-10T10:29:34.636Z,543.5
2023-11-10T10:30:36.998Z,544
2023-11-10T10:31:39.600Z,543.9
2023-11-10T10:32:41.835Z,544.3
2023-11-10T10:33:44.310Z,544.4
2023-11-10T10:34:46.744Z,544.6
2023-11-10T10:35:48.553Z,544.9
2023-11-10T10:36:50.570Z,544.9
2023-11-10T10:37:52.380Z,544.5
2023-11-10T10:38:54.177Z,544.9
2023-11-10T10:39:56.242Z,545.1
2023-11-10T10:40:58.044Z,545.7
2023-11-10T10:41:59.817Z,546.1
2023-11-10T10:43:01.839Z,546.3
2023-11-10T10:44:12.078Z,546.1
2023-11-10T10:45:13.933Z,545.5
2023-11-10T10:46:16.468Z,545.7
2023-11-10T10:47:18.396Z,546
2023-11-10T10:48:20.189Z,546.7
2023-11-10T10:49:21.901Z,547.2
2023-11-10T10:50:25.661Z,547.6
2023-11-10T10:51:27.542Z,547.5
2023-11-10T10:52:29.302Z,547.7
2023-11-10T10:53:31.044Z,548.2
2023-11-10T10:54:33.281Z,547.9
2023-11-10T10:55:35.226Z,548.2
2023-11-10T10:56:46.526Z,548.4
2023-11-10T10:57:48.408Z,548.5
2023-11-10T10:58:50.189Z,548.7
2023-11-10T10:59:51.943Z,548.5
2023-11-10T11:00:54.122Z,548.4
2023-11-10T11:01:56.269Z,548.3
2023-11-10T11:02:58.447Z,548.5
2023-11-10T11:04:00.834Z,548.3
2023-11-10T11:05:02.780Z,548.4
2023-11-10T11:06:04.569Z,548
2023-11-10T11:07:06.522Z,547.8
2023-11-10T11:08:08.406Z,547.7
2023-11-10T11:09:10.182Z,548
2023-11-10T11:10:12.154Z,548.1
2023-11-10T11:11:13.980Z,548.9
2023-11-10T11:12:15.749Z,548.9
2023-11-10T11:13:18.039Z,549.3
2023-11-10T11:14:19.922Z,549.2
2023-11-10T11:15:21.729Z,548.7
2023-11-10T11:16:23.708Z,548.3
2023-11-10T11:17:25.493Z,548.4
2023-11-10T11:18:27.495Z,547.5
2023-11-10T11:19:29.336Z,548.3
2023-11-10T11:20:31.154Z,547.9
2023-11-10T11:21:33.238Z,547.8
2023-11-10T11:22:35.013Z,547.8
2023-11-10T11:23:37.044Z,547.9
2023-11-10T11:24:39.213Z,549.1
2023-11-10T11:25:41.093Z,549.6
2023-11-10T11:26:42.889Z,550.5
2023-11-10T11:27:44.866Z,550.5
2023-11-10T11:28:46.653Z,550.7
2023-11-10T11:29:48.445Z,550.3
2023-11-10T11:30:50.629Z,550.2
2023-11-10T11:31:52.900Z,549.9
2023-11-10T11:32:55.062Z,550.3
2023-11-10T11:33:57.221Z,550.9
2023-11-10T11:34:59.096Z,551.5
2023-11-10T11:36:01.229Z,551.9
2023-11-10T11:37:03.238Z,552.1
2023-11-10T11:38:05.094Z,551.8
2023-11-10T11:39:06.920Z,552.1
2023-11-10T11:40:09.137Z,552.3
2023-11-10T11:41:10.982Z,552.8
2023-11-10T11:42:12.751Z,553.7
2023-11-10T11:43:14.545Z,554
2023-11-10T11:44:16.309Z,554.4
2023-11-10T11:45:18.104Z,554.8
2023-11-10T11:46:20.495Z,555.1
2023-11-10T11:47:22.288Z,555.3
2023-11-10T11:48:24.120Z,554.8
2023-11-10T11:49:25.935Z,554.5
2023-11-10T11:50:27.729Z,554.6
2023-11-10T11:51:29.640Z,554.5
2023-11-10T11:52:31.443Z,555.4
2023-11-10T11:53:33.185Z,556.1
2023-11-10T11:54:35.313Z,556.7
2023-11-10T11:55:37.195Z,557.6
2023-11-10T11:56:38.998Z,557.5
2023-11-10T11:57:41.181Z,558.1
2023-11-10T11:58:43.024Z,558.6
2023-11-10T11:59:44.837Z,559.4
2023-11-10T12:00:46.712Z,559.9
2023-11-10T12:01:48.805Z,560.1
2023-11-10T12:02:50.828Z,560.4
2023-11-10T12:03:53.364Z,560.6
2023-11-10T12:04:55.287Z,560.7
2023-11-10T12:05:57.049Z,560.9
2023-11-10T12:06:59.000Z,561.2
2023-11-10T12:08:00.749Z,561.7
2023-11-10T12:09:02.512Z,562
2023-11-10T12:10:04.708Z,562.3
2023-11-10T12:11:06.633Z,562.5
2023-11-10T12:12:08.451Z,562.1
2023-11-10T12:13:10.426Z,562.4
2023-11-10T12:14:12.229Z,562.9
2023-11-10T12:15:13.975Z,563.3
2023-11-10T12:16:40.180Z,563.5
2023-11-10T12:17:42.343Z,563.1
2023-11-10T12:18:44.303Z,563.4
2023-11-10T12:19:46.186Z,563.6
2023-11-10T12:20:48.317Z,563.7
2023-11-10T12:21:50.530Z,564.1
2023-11-10T12:22:53.351Z,563.9
2023-11-10T12:23:55.101Z,564.4
2023-11-10T12:24:57.120Z,564.4
2023-11-10T12:25:59.030Z,564.7
2023-11-10T12:27:00.926Z,565.1
2023-11-10T12:28:03.093Z,565.2
2023-11-10T12:29:05.074Z,564.8
2023-11-10T12:30:06.874Z,565.5
2023-11-10T12:31:08.894Z,565.1
2023-11-10T12:32:10.702Z,565.5
2023-11-10T12:33:12.781Z,565.5
2023-11-10T12:34:15.221Z,565.6
2023-11-10T12:35:16.993Z,566.4
2023-11-10T12:36:18.834Z,566.6
2023-11-10T12:37:20.704Z,567.4
2023-11-10T12:38:22.649Z,567.6
2023-11-10T12:39:24.725Z,568.2
2023-11-10T12:40:26.619Z,567.5
2023-11-10T12:41:28.388Z,567.8
2023-11-10T12:42:31.462Z,567.8
2023-11-10T12:43:33.395Z,567.8
2023-11-10T12:44:35.568Z,567.8
2023-11-10T12:45:37.655Z,567.1
2023-11-10T12:46:40.175Z,566.8
2023-11-10T12:47:42.074Z,566.8
2023-11-10T12:48:44.514Z,567.1
2023-11-10T12:49:46.526Z,566.9
2023-11-10T12:50:48.325Z,566.8
2023-11-10T12:51:50.224Z,566.4
2023-11-10T12:52:52.005Z,566.9
2023-11-10T12:53:53.862Z,566.8
2023-11-10T12:54:55.784Z,567.1
2023-11-10T12:55:57.544Z,567.8
2023-11-10T12:56:59.301Z,568.4
2023-11-10T12:58:01.232Z,568.6
2023-11-10T12:59:03.150Z,568.3
2023-11-10T13:00:04.945Z,568.8
2023-11-10T13:01:06.993Z,568.7
2023-11-10T13:02:09.080Z,568.6
2023-11-10T13:03:11.558Z,568.8
2023-11-10T13:04:13.805Z,569.2
2023-11-10T13:05:15.735Z,568.9
2023-11-10T13:06:17.679Z,568.6
2023-11-10T13:07:19.655Z,568.1
2023-11-10T13:08:21.420Z,568.2
2023-11-10T13:09:23.225Z,568.1
2023-11-10T13:10:24.977Z,567
2023-11-10T13:11:26.720Z,566.4
2023-11-10T13:12:28.679Z,566.2
2023-11-10T13:13:30.431Z,566.5
2023-11-10T13:14:32.371Z,566.5
2023-11-10T13:15:34.649Z,567
2023-11-10T13:16:36.951Z,567.1
2023-11-10T13:17:39.298Z,567.2
2023-11-10T13:18:41.368Z,566.9
2023-11-10T13:19:43.156Z,566.8
2023-11-10T13:20:45.063Z,566.9
2023-11-10T13:21:47.301Z,567
2023-11-10T13:22:49.129Z,567.9
2023-11-10T13:23:51.283Z,568.1
2023-11-10T13:24:53.248Z,568.7
2023-11-10T13:25:55.085Z,568.8
2023-11-10T13:26:56.872Z,568.8